Time;durP1;ratioP1;P1;durP2;ratioP2;P2;SDS_P1;SDS_P2;PMS_P1;PMS_P2;Temp;Humidity;BMP_temperature;BMP_pressure;BME280_temperature;BME280_humidity;BME280_pressure;Samples;Min_cycle;Max_cycle;Signal;HPM_P1;HPM_P2
2022/09/24 00:01:38;;;;;;;;;;;;;;;58.24;7.52;100752.84;5104830;28;19920;-64
2022/09/24 00:04:06;;;;;;;;;;;;;;;57.71;7.08;100753.34;5109136;28;19972;-65
2022/09/24 00:06:34;;;;;;;;;;;;;;;58.03;6.63;100749.56;5104436;28;20267;-65
2022/09/24 00:09:01;;;;;;;;;;;;;;;58.47;6.97;100746.75;5107857;28;19924;-66
2022/09/24 00:11:27;;;;;;;;;;;;;;;58.36;6.81;100747.28;5106787;27;19926;-65
2022/09/24 00:13:55;;;;;;;;;;;;;;;58.30;6.97;100743.78;5106377;28;19932;-68
2022/09/24 00:16:22;;;;;;;;;;;;;;;56.55;8.09;100746.59;5104420;28;19919;-65
2022/09/24 00:18:48;;;;;;;;;;;;;;;56.21;7.99;100752.94;5109465;28;19924;-68
2022/09/24 00:21:14;;;;;;;;;;;;;;;57.23;7.01;100754.25;5102751;28;20865;-67
2022/09/24 00:23:41;;;;;;;;;;;;;;;58.24;6.41;100752.06;5102960;28;19923;-65
2022/09/24 00:28:53;;;;;;;;;;;;;;;58.96;5.96;100750.81;5085616;28;19931;-64
2022/09/24 00:31:19;;;;;;;;;;;;;;;59.91;6.09;100743.06;5104399;28;19930;-64
2022/09/24 00:33:48;;;;;;;;;;;;;;;59.37;6.33;100754.13;5108910;28;19983;-64
2022/09/24 00:36:14;;;;;;;;;;;;;;;58.66;6.48;100752.75;5105002;28;19919;-65
2022/09/24 00:38:40;;;;;;;;;;;;;;;59.57;6.32;100746.97;5102035;28;19955;-65
2022/09/24 00:41:06;;;;;;;;;;;;;;;60.24;5.67;100745.59;5101960;28;19923;-66
2022/09/24 00:43:35;;;;;;;;;;;;;;;59.37;6.46;100748.25;5103143;28;19988;-65
2022/09/24 00:46:03;;;;;;;;;;;;;;;59.59;6.03;100753.00;5108021;28;19993;-64
2022/09/24 00:48:33;;;;;;;;;;;;;;;58.67;6.16;100754.31;5108612;28;19920;-64
2022/09/24 00:51:02;;;;;;;;;;;;;;;56.92;7.38;100753.66;5099945;28;20377;-65
2022/09/24 00:53:32;;;;;;;;;;;;;;;57.23;7.08;100759.34;5104992;28;19980;-64
2022/09/24 00:55:59;;;;;;;;;;;;;;;56.93;7.38;100763.97;5108629;28;19928;-65
2022/09/24 00:58:27;;;;;;;;;;;;;;;58.67;6.35;100754.31;5094338;28;19916;-64
2022/09/24 01:01:05;;;;;;;;;;;;;;;61.34;4.69;100757.50;5105599;28;19920;-66
2022/09/24 01:03:32;;;;;;;;;;;;;;;61.78;5.00;100756.97;5115839;28;19926;-65
2022/09/24 01:05:59;;;;;;;;;;;;;;;60.79;4.99;100771.09;5104730;28;19951;-64
2022/09/24 01:08:26;;;;;;;;;;;;;;;59.91;6.02;100769.47;5106573;28;20439;-64
2022/09/24 01:11:06;;;;;;;;;;;;;;;59.06;6.22;100766.28;5103402;28;20030;-64
2022/09/24 01:13:39;;;;;;;;;;;;;;;58.02;6.19;100771.41;5109005;28;19975;-64
2022/09/24 01:16:11;;;;;;;;;;;;;;;57.89;7.26;100769.56;5108450;28;19920;-64
2022/09/24 01:18:43;;;;;;;;;;;;;;;57.64;7.74;100777.56;5108826;28;19973;-65
2022/09/24 01:21:09;;;;;;;;;;;;;;;57.56;7.74;100776.84;5108723;28;20369;-64
2022/09/24 01:23:44;;;;;;;;;;;;;;;56.63;7.91;100778.69;5110548;28;19959;-64
2022/09/24 01:26:29;;;;;;;;;;;;;;;56.39;8.36;100788.09;5092601;28;19919;-64
2022/09/24 01:29:14;;;;;;;;;;;;;;;56.61;8.05;100781.44;5107744;28;19979;-65
2022/09/24 01:32:06;;;;;;;;;;;;;;;56.90;7.94;100779.75;5105891;28;19920;-65
2022/09/24 01:34:38;;;;;;;;;;;;;;;56.59;7.82;100795.84;5099905;28;20385;-65
2022/09/24 01:37:05;;;;;;;;;;;;;;;56.54;7.79;100790.97;5105381;28;19915;-65
2022/09/24 01:39:32;;;;;;;;;;;;;;;56.32;8.60;100792.59;5087737;28;20374;-64
2022/09/24 01:41:59;;;;;;;;;;;;;;;56.02;8.08;100799.22;5110145;28;19941;-65
2022/09/24 01:44:25;;;;;;;;;;;;;;;54.89;9.52;100801.25;5103689;28;19966;-64
2022/09/24 01:46:52;;;;;;;;;;;;;;;54.60;9.06;100797.63;5103709;28;19935;-65
2022/09/24 01:49:19;;;;;;;;;;;;;;;55.10;8.96;100793.19;5105760;28;19955;-65
2022/09/24 01:51:51;;;;;;;;;;;;;;;55.18;9.33;100796.16;5106027;28;19920;-64
2022/09/24 01:54:20;;;;;;;;;;;;;;;55.60;8.89;100793.75;5111992;28;19926;-64
2022/09/24 01:56:50;;;;;;;;;;;;;;;55.20;9.40;100802.19;5105795;27;19919;-64
2022/09/24 01:59:37;;;;;;;;;;;;;;;55.12;9.21;100807.19;5116068;27;19978;-64
2022/09/24 02:02:07;;;;;;;;;;;;;;;54.81;9.16;100806.28;5123318;27;20007;-64
2022/09/24 02:04:37;;;;;;;;;;;;;;;55.35;8.91;100808.06;5102149;27;19968;-64
2022/09/24 02:07:07;;;;;;;;;;;;;;;55.48;9.35;100799.16;5119667;27;19920;-64
2022/09/24 02:09:38;;;;;;;;;;;;;;;55.02;9.54;100809.13;5118855;27;20439;-64
2022/09/24 02:12:10;;;;;;;;;;;;;;;55.54;8.71;100801.88;5083027;28;19991;-64
2022/09/24 02:14:43;;;;;;;;;;;;;;;55.23;8.87;100811.91;5098256;28;19915;-65
2022/09/24 02:17:11;;;;;;;;;;;;;;;55.53;9.28;100814.91;5101731;28;19924;-64
2022/09/24 02:19:38;;;;;;;;;;;;;;;55.78;8.73;100815.16;5107514;28;20334;-64
2022/09/24 02:22:06;;;;;;;;;;;;;;;55.82;8.43;100814.75;5111304;28;19924;-64
2022/09/24 02:24:55;;;;;;;;;;;;;;;55.64;9.10;100823.28;5110028;28;21570;-62
2022/09/24 02:27:25;;;;;;;;;;;;;;;55.51;8.74;100840.19;5098286;28;20010;-63
2022/09/24 02:29:51;;;;;;;;;;;;;;;55.46;9.68;100842.69;5124122;27;19919;-65
2022/09/24 02:32:18;;;;;;;;;;;;;;;55.68;9.34;100841.22;5101131;27;19920;-63
2022/09/24 02:34:48;;;;;;;;;;;;;;;54.93;11.05;100848.28;5114454;27;19916;-63
2022/09/24 02:37:15;;;;;;;;;;;;;;;54.68;10.67;100867.56;5113001;27;19959;-66
2022/09/24 02:39:42;;;;;;;;;;;;;;;54.91;10.73;100868.47;5107042;27;19967;-66
2022/09/24 02:42:09;;;;;;;;;;;;;;;54.34;10.72;100873.50;5128144;27;19919;-66
2022/09/24 02:44:36;;;;;;;;;;;;;;;54.76;10.78;100885.84;5092688;28;20015;-66
2022/09/24 02:47:02;;;;;;;;;;;;;;;54.76;10.22;100874.97;5109880;27;20468;-66
2022/09/24 02:49:28;;;;;;;;;;;;;;;54.10;11.71;100886.31;5112425;27;19923;-66
2022/09/24 02:51:55;;;;;;;;;;;;;;;54.49;11.11;100891.88;5124836;27;19981;-66
2022/09/24 02:54:22;;;;;;;;;;;;;;;54.25;10.87;100893.03;5101333;27;19916;-65
2022/09/24 02:56:49;;;;;;;;;;;;;;;53.87;11.69;100897.66;5123401;27;19920;-66
2022/09/24 02:59:15;;;;;;;;;;;;;;;53.69;11.26;100896.56;5113023;27;19916;-64
2022/09/24 03:01:41;;;;;;;;;;;;;;;53.85;11.90;100900.38;5093434;28;19927;-66
2022/09/24 03:04:07;;;;;;;;;;;;;;;54.35;10.85;100910.78;5104211;28;19926;-65
2022/09/24 03:06:35;;;;;;;;;;;;;;;54.64;11.19;100908.69;5098346;27;19946;-65
2022/09/24 03:09:02;;;;;;;;;;;;;;;54.46;11.28;100924.25;5100708;28;19950;-67
2022/09/24 03:11:30;;;;;;;;;;;;;;;53.85;10.81;100920.72;5091190;28;19916;-64
2022/09/24 03:13:57;;;;;;;;;;;;;;;54.36;10.50;100923.97;5106850;28;19920;-66
2022/09/24 03:16:23;;;;;;;;;;;;;;;54.24;11.31;100916.88;5106681;27;19928;-64
2022/09/24 03:18:49;;;;;;;;;;;;;;;54.34;10.56;100926.69;5101901;28;19920;-64
2022/09/24 03:21:17;;;;;;;;;;;;;;;54.44;11.41;100936.47;5104925;28;19973;-64
2022/09/24 03:23:44;;;;;;;;;;;;;;;54.34;11.71;100940.47;5106202;28;20461;-64
2022/09/24 03:26:11;;;;;;;;;;;;;;;54.31;10.96;100939.44;5105928;28;20543;-67
2022/09/24 03:28:37;;;;;;;;;;;;;;;54.25;11.42;100950.44;5107728;28;19924;-67
2022/09/24 03:31:04;;;;;;;;;;;;;;;54.16;10.99;100951.72;5103132;28;19920;-65
2022/09/24 03:33:32;;;;;;;;;;;;;;;53.80;11.76;100960.25;5101000;28;20344;-66
2022/09/24 03:35:59;;;;;;;;;;;;;;;53.50;11.44;100959.84;5101198;28;19917;-65
2022/09/24 03:38:26;;;;;;;;;;;;;;;53.68;11.63;100964.75;5099669;28;19920;-65
2022/09/24 03:40:52;;;;;;;;;;;;;;;53.41;11.85;100970.59;5098199;28;20010;-65
2022/09/24 03:43:19;;;;;;;;;;;;;;;52.59;12.60;100962.91;5099398;28;19920;-65
2022/09/24 03:45:45;;;;;;;;;;;;;;;53.23;12.47;100971.50;5101705;28;19982;-65
2022/09/24 03:48:11;;;;;;;;;;;;;;;52.64;12.93;100972.88;5104320;28;19924;-65
2022/09/24 03:50:38;;;;;;;;;;;;;;;53.17;12.56;100979.56;5107423;28;20271;-65
2022/09/24 03:53:04;;;;;;;;;;;;;;;52.92;12.00;100981.06;5107060;28;21427;-65
2022/09/24 03:55:32;;;;;;;;;;;;;;;53.63;11.32;100980.16;5104101;28;20078;-66
2022/09/24 03:57:59;;;;;;;;;;;;;;;53.47;11.60;100990.03;5104007;28;19920;-66
2022/09/24 04:00:26;;;;;;;;;;;;;;;53.38;12.05;100989.16;5098844;28;20370;-66
2022/09/24 04:02:52;;;;;;;;;;;;;;;53.39;11.69;100995.75;5096440;28;19926;-66
2022/09/24 04:05:19;;;;;;;;;;;;;;;52.58;12.79;101009.91;5096986;28;19919;-66
2022/09/24 04:07:45;;;;;;;;;;;;;;;51.70;13.20;101013.53;5106166;28;20377;-65
2022/09/24 04:10:12;;;;;;;;;;;;;;;52.27;12.78;101008.56;5096777;28;20259;-65
2022/09/24 04:12:39;;;;;;;;;;;;;;;52.64;12.54;101002.69;5098979;28;19920;-66
2022/09/24 04:15:05;;;;;;;;;;;;;;;53.00;12.60;101008.13;5094238;28;19924;-66
2022/09/24 04:17:31;;;;;;;;;;;;;;;53.05;12.18;101007.25;5095503;28;19920;-66
2022/09/24 04:19:58;;;;;;;;;;;;;;;53.31;12.60;101012.25;5096272;28;19927;-65
2022/09/24 04:22:25;;;;;;;;;;;;;;;53.35;12.34;101007.72;5096692;28;19923;-66
2022/09/24 04:24:51;;;;;;;;;;;;;;;53.30;12.64;101011.47;5095826;28;20340;-65
2022/09/24 04:27:18;;;;;;;;;;;;;;;52.96;12.49;101016.34;5096277;28;19927;-66
2022/09/24 04:29:44;;;;;;;;;;;;;;;52.08;13.66;101008.59;5094615;28;20345;-65
2022/09/24 04:32:10;;;;;;;;;;;;;;;53.09;12.11;101007.69;5105389;28;19924;-66
2022/09/24 04:34:36;;;;;;;;;;;;;;;52.53;12.65;100999.97;5104097;28;19926;-65
2022/09/24 04:37:04;;;;;;;;;;;;;;;53.19;12.25;100997.19;5104736;28;19959;-65
2022/09/24 04:39:31;;;;;;;;;;;;;;;53.42;11.91;101004.13;5109500;28;20334;-65
2022/09/24 04:41:57;;;;;;;;;;;;;;;53.37;12.10;101005.03;5104548;28;19919;-65
2022/09/24 04:44:23;;;;;;;;;;;;;;;53.47;12.05;101001.66;5109680;28;19931;-65
2022/09/24 04:46:50;;;;;;;;;;;;;;;53.43;12.19;101002.78;5102115;28;20026;-65
2022/09/24 04:49:16;;;;;;;;;;;;;;;53.38;12.43;101002.91;5103272;28;19927;-65
2022/09/24 04:51:42;;;;;;;;;;;;;;;53.41;11.78;101011.28;5097334;28;20459;-66
2022/09/24 04:54:09;;;;;;;;;;;;;;;53.28;12.17;101014.16;5101006;28;19971;-66
2022/09/24 04:56:35;;;;;;;;;;;;;;;53.23;13.01;101012.16;5098962;28;19920;-66
2022/09/24 04:59:01;;;;;;;;;;;;;;;53.25;12.20;101015.28;5098384;28;19920;-66
2022/09/24 05:01:28;;;;;;;;;;;;;;;53.25;12.71;101014.50;5097663;28;20344;-66
2022/09/24 05:03:54;;;;;;;;;;;;;;;53.12;12.27;101018.19;5109993;28;19923;-66
2022/09/24 05:06:20;;;;;;;;;;;;;;;53.20;12.26;101007.47;5102600;28;19919;-66
2022/09/24 05:08:47;;;;;;;;;;;;;;;53.27;12.50;101003.09;5103696;28;20461;-66
2022/09/24 05:11:13;;;;;;;;;;;;;;;53.25;12.08;101006.56;5101739;28;20297;-66
2022/09/24 05:13:39;;;;;;;;;;;;;;;53.28;12.76;101002.53;5096182;28;20386;-67
2022/09/24 05:16:05;;;;;;;;;;;;;;;53.05;11.96;101013.06;5104537;28;20022;-66
2022/09/24 05:18:32;;;;;;;;;;;;;;;52.93;12.99;101000.06;5111145;28;19919;-66
2022/09/24 05:20:58;;;;;;;;;;;;;;;53.05;12.83;101004.34;5111869;28;20019;-66
2022/09/24 05:23:24;;;;;;;;;;;;;;;52.96;13.01;101005.53;5112402;28;19981;-66
2022/09/24 05:28:37;;;;;;;;;;;;;;;52.97;12.57;101012.94;5112994;28;19966;-66
2022/09/24 05:31:03;;;;;;;;;;;;;;;53.05;12.38;101018.88;5094536;28;19939;-66
2022/09/24 05:33:31;;;;;;;;;;;;;;;52.97;12.71;101017.91;5112275;28;19974;-66
2022/09/24 05:35:57;;;;;;;;;;;;;;;53.01;12.32;101015.50;5112561;28;20366;-66
2022/09/24 05:38:24;;;;;;;;;;;;;;;53.11;12.56;101011.59;5112872;28;20405;-66
2022/09/24 05:40:50;;;;;;;;;;;;;;;53.17;12.21;101013.63;5112548;28;19984;-66
2022/09/24 05:43:20;;;;;;;;;;;;;;;53.17;12.28;101019.44;5112626;28;19919;-66
2022/09/24 05:45:48;;;;;;;;;;;;;;;52.88;13.13;101015.47;5112882;28;20381;-66
2022/09/24 05:48:16;;;;;;;;;;;;;;;52.84;12.96;101013.69;5116010;28;19927;-66
2022/09/24 05:50:42;;;;;;;;;;;;;;;52.84;13.06;101004.19;5115938;28;20010;-66
2022/09/24 05:53:08;;;;;;;;;;;;;;;52.89;13.04;101017.03;5098517;28;20028;-66
2022/09/24 05:55:35;;;;;;;;;;;;;;;53.04;11.94;101015.19;5075621;28;19924;-66
2022/09/24 05:58:09;;;;;;;;;;;;;;;52.94;12.99;101011.09;5094153;28;19939;-66
2022/09/24 06:00:36;;;;;;;;;;;;;;;52.92;12.40;101018.81;5094466;28;19920;-66
2022/09/24 06:03:06;;;;;;;;;;;;;;;53.07;12.99;101010.38;5094107;28;20010;-66
2022/09/24 06:05:34;;;;;;;;;;;;;;;53.19;12.90;101017.53;5094919;28;19923;-66
2022/09/24 06:08:03;;;;;;;;;;;;;;;52.98;13.00;101028.22;5094767;28;19942;-66
2022/09/24 06:10:30;;;;;;;;;;;;;;;52.84;13.14;101022.41;5095214;28;19920;-66
2022/09/24 06:12:57;;;;;;;;;;;;;;;52.84;13.16;101021.63;5095158;28;20375;-66
2022/09/24 06:15:26;;;;;;;;;;;;;;;52.80;13.25;101015.34;5094670;28;19954;-66
2022/09/24 06:17:53;;;;;;;;;;;;;;;52.74;12.58;101011.75;5093979;28;20378;-66
2022/09/24 06:20:19;;;;;;;;;;;;;;;52.82;12.55;101019.28;5094399;28;19920;-66
2022/09/24 06:22:46;;;;;;;;;;;;;;;52.76;13.01;101014.88;5094044;28;20369;-66
2022/09/24 06:25:12;;;;;;;;;;;;;;;52.75;12.92;101019.91;5092988;28;19920;-66
2022/09/24 06:27:38;;;;;;;;;;;;;;;52.84;13.01;101022.41;5093991;28;19923;-66
2022/09/24 06:30:05;;;;;;;;;;;;;;;52.76;13.02;101018.56;5094906;28;19920;-66
2022/09/24 06:32:31;;;;;;;;;;;;;;;52.81;12.36;101023.50;5094931;28;19924;-66
2022/09/24 06:34:58;;;;;;;;;;;;;;;52.66;13.06;101023.22;5093826;28;20023;-66
2022/09/24 06:37:24;;;;;;;;;;;;;;;52.69;12.48;101010.50;5095254;28;19923;-66
2022/09/24 06:39:50;;;;;;;;;;;;;;;52.60;12.36;101022.53;5094889;28;20009;-66
2022/09/24 06:42:16;;;;;;;;;;;;;;;52.49;12.73;101025.63;5093734;28;19967;-65
2022/09/24 06:44:43;;;;;;;;;;;;;;;52.56;13.17;101019.16;5095274;28;20002;-66
2022/09/24 06:47:11;;;;;;;;;;;;;;;52.60;13.05;101022.53;5095078;28;19961;-66
2022/09/24 06:49:37;;;;;;;;;;;;;;;52.59;12.97;101023.84;5095039;28;20379;-66
2022/09/24 06:52:03;;;;;;;;;;;;;;;52.57;13.23;101026.53;5094784;28;20383;-66
2022/09/24 06:54:30;;;;;;;;;;;;;;;52.55;13.24;101029.22;5094675;28;19963;-66
2022/09/24 06:56:56;;;;;;;;;;;;;;;52.47;12.65;101028.31;5094055;28;20366;-66
2022/09/24 06:59:22;;;;;;;;;;;;;;;52.43;13.01;101028.63;5094616;28;19923;-66
2022/09/24 07:01:48;;;;;;;;;;;;;;;52.35;12.66;101035.59;5094124;28;19927;-66
2022/09/24 07:04:15;;;;;;;;;;;;;;;52.39;12.35;101033.16;5094491;28;19927;-66
2022/09/24 07:09:26;;;;;;;;;;;;;;;52.28;12.73;101034.13;5094467;28;20271;-66
2022/09/24 07:11:55;;;;;;;;;;;;;;;52.37;13.46;101038.75;5094395;28;19916;-66
2022/09/24 07:14:21;;;;;;;;;;;;;;;52.50;12.62;101038.81;5094510;28;19927;-66
2022/09/24 07:16:47;;;;;;;;;;;;;;;52.44;12.58;101041.81;5094212;28;20276;-66
2022/09/24 07:19:13;;;;;;;;;;;;;;;52.49;12.69;101037.25;5094024;28;19924;-66
2022/09/24 07:21:40;;;;;;;;;;;;;;;52.47;12.43;101037.00;5094264;28;19985;-66
2022/09/24 07:24:06;;;;;;;;;;;;;;;52.40;12.59;101044.22;5093894;28;20007;-66
2022/09/24 07:26:32;;;;;;;;;;;;;;;52.47;12.17;101034.09;5094248;28;19916;-66
2022/09/24 07:28:59;;;;;;;;;;;;;;;52.43;12.01;101028.63;5094076;28;19920;-66
2022/09/24 07:31:25;;;;;;;;;;;;;;;52.21;12.07;101023.91;5092875;28;19939;-66
2022/09/24 07:33:52;;;;;;;;;;;;;;;52.14;12.16;101023.78;5093994;28;20028;-66
2022/09/24 07:36:18;;;;;;;;;;;;;;;51.98;12.13;101019.78;5093808;28;19916;-66
2022/09/24 07:38:45;;;;;;;;;;;;;;;52.05;12.29;101021.28;5093767;28;19977;-66
2022/09/24 07:41:11;;;;;;;;;;;;;;;52.03;12.53;101023.91;5092458;28;19916;-66
2022/09/24 07:43:38;;;;;;;;;;;;;;;51.96;12.36;101019.53;5093826;28;20425;-66
2022/09/24 07:46:05;;;;;;;;;;;;;;;51.94;12.11;101030.91;5093595;28;20366;-66
2022/09/24 07:48:31;;;;;;;;;;;;;;;51.88;11.68;101038.88;5092446;28;20340;-67
2022/09/24 07:50:57;;;;;;;;;;;;;;;51.72;11.72;101040.69;5093610;28;19916;-66
2022/09/24 07:53:24;;;;;;;;;;;;;;;51.61;11.27;101035.00;5093974;28;19965;-66
2022/09/24 07:55:51;;;;;;;;;;;;;;;51.52;11.22;101036.16;5093475;28;20370;-66
2022/09/24 07:58:18;;;;;;;;;;;;;;;51.60;11.02;101024.75;5092201;28;19920;-66
2022/09/24 08:00:44;;;;;;;;;;;;;;;51.51;11.21;101034.59;5093320;28;19916;-66
2022/09/24 08:03:10;;;;;;;;;;;;;;;51.39;11.50;101035.28;5093307;28;19924;-66
2022/09/24 08:05:43;;;;;;;;;;;;;;;51.35;11.21;101038.44;5093202;28;19923;-66
2022/09/24 08:08:10;;;;;;;;;;;;;;;51.32;11.40;101033.75;5093058;28;19928;-66
2022/09/24 08:10:37;;;;;;;;;;;;;;;51.38;11.24;101034.50;5092678;28;19922;-66
2022/09/24 08:13:03;;;;;;;;;;;;;;;51.24;11.74;101029.91;5093245;28;19942;-66
2022/09/24 08:15:29;;;;;;;;;;;;;;;51.22;11.85;101026.75;5093216;28;19941;-66
2022/09/24 08:18:02;;;;;;;;;;;;;;;51.31;11.40;101029.28;5092979;28;19924;-65
2022/09/24 08:20:29;;;;;;;;;;;;;;;51.21;11.49;101025.97;5093125;28;19924;-66
2022/09/24 08:23:00;;;;;;;;;;;;;;;51.12;11.45;101029.22;5093099;28;19920;-66
2022/09/24 08:25:26;;;;;;;;;;;;;;;51.18;11.58;101032.09;5093240;28;19920;-66
2022/09/24 08:27:52;;;;;;;;;;;;;;;50.93;11.86;101026.22;5093019;28;19916;-66
2022/09/24 08:30:20;;;;;;;;;;;;;;;51.00;11.27;101031.44;5093068;28;19962;-66
2022/09/24 08:32:49;;;;;;;;;;;;;;;50.91;12.14;101036.78;5093381;28;19951;-65
2022/09/24 08:35:15;;;;;;;;;;;;;;;50.71;11.75;101032.25;5092954;28;19943;-66
2022/09/24 08:37:42;;;;;;;;;;;;;;;50.70;12.28;101031.47;5093039;28;20370;-65
2022/09/24 08:40:19;;;;;;;;;;;;;;;50.74;11.56;101034.03;5092720;28;19920;-66
2022/09/24 08:42:52;;;;;;;;;;;;;;;50.80;11.50;101031.88;5092910;28;20298;-66
2022/09/24 08:48:19;;;;;;;;;;;;;;;50.69;11.35;101034.88;5093323;28;19982;-66
2022/09/24 08:50:50;;;;;;;;;;;;;;;50.64;12.33;101047.28;5092854;28;20382;-66
2022/09/24 08:53:25;;;;;;;;;;;;;;;50.77;11.62;101039.53;5093034;28;19916;-66
2022/09/24 08:56:00;;;;;;;;;;;;;;;50.85;11.56;101044.75;5092880;28;19965;-66
2022/09/24 08:58:27;;;;;;;;;;;;;;;50.93;11.78;101040.72;5092799;28;19923;-66
2022/09/24 09:01:05;;;;;;;;;;;;;;;50.84;11.45;101043.97;5092738;28;19995;-66
2022/09/24 09:03:36;;;;;;;;;;;;;;;50.96;11.59;101047.53;5092447;28;20030;-66
2022/09/24 09:06:09;;;;;;;;;;;;;;;50.91;11.39;101052.06;5092470;28;19920;-66
2022/09/24 09:08:41;;;;;;;;;;;;;;;50.74;11.76;101040.63;5092885;28;19916;-66
2022/09/24 09:11:10;;;;;;;;;;;;;;;50.63;11.73;101042.78;5092690;28;20250;-66
2022/09/24 09:13:40;;;;;;;;;;;;;;;50.54;11.25;101031.56;5092579;28;19951;-66
2022/09/24 09:16:18;;;;;;;;;;;;;;;50.17;11.08;101044.44;5092520;28;20007;-66
2022/09/24 09:18:47;;;;;;;;;;;;;;;50.40;10.26;101045.06;5091038;28;19939;-65
2022/09/24 09:21:17;;;;;;;;;;;;;;;50.11;10.17;101049.47;5095003;28;19974;-66
2022/09/24 09:23:47;;;;;;;;;;;;;;;50.42;10.29;101048.22;5096525;28;19924;-65
2022/09/24 09:26:13;;;;;;;;;;;;;;;50.55;10.72;101048.38;5096199;28;20408;-66
2022/09/24 09:28:40;;;;;;;;;;;;;;;50.17;10.28;101047.31;5096459;28;19990;-66
2022/09/24 09:31:24;;;;;;;;;;;;;;;50.27;10.00;101048.56;5096089;28;20366;-66
2022/09/24 09:34:00;;;;;;;;;;;;;;;50.36;10.63;101053.28;5096157;28;19920;-66
2022/09/24 09:36:29;;;;;;;;;;;;;;;50.37;10.86;101046.94;5096173;28;20084;-66
2022/09/24 09:39:14;;;;;;;;;;;;;;;50.33;10.76;101051.44;5096294;28;20022;-66
2022/09/24 09:41:43;;;;;;;;;;;;;;;50.32;10.99;101044.06;5096083;28;20354;-66
2022/09/24 09:44:19;;;;;;;;;;;;;;;50.23;10.41;101044.38;5096034;28;19923;-66
2022/09/24 09:46:49;;;;;;;;;;;;;;;50.26;10.41;101041.19;5095991;28;19963;-67
2022/09/24 09:49:16;;;;;;;;;;;;;;;50.37;10.63;101044.06;5094636;28;20353;-68
2022/09/24 09:51:46;;;;;;;;;;;;;;;50.43;10.62;101036.09;5095911;28;20019;-66
2022/09/24 09:54:12;;;;;;;;;;;;;;;50.34;10.86;101045.13;5095825;28;20053;-66
2022/09/24 09:56:43;;;;;;;;;;;;;;;50.27;11.50;101042.75;5095669;28;19927;-67
2022/09/24 09:59:09;;;;;;;;;;;;;;;50.20;10.38;101038.34;5095750;28;19920;-66
2022/09/24 10:01:39;;;;;;;;;;;;;;;50.16;10.94;101039.97;5095407;28;20008;-67
2022/09/24 10:04:21;;;;;;;;;;;;;;;50.14;11.21;101036.81;5104126;28;19943;-66
2022/09/24 10:06:47;;;;;;;;;;;;;;;50.06;10.46;101038.69;5095454;28;19928;-66
2022/09/24 10:09:18;;;;;;;;;;;;;;;50.08;10.69;101033.94;5095700;28;19916;-66
2022/09/24 10:11:45;;;;;;;;;;;;;;;50.00;10.70;101037.97;5095426;28;19920;-66
2022/09/24 10:14:12;;;;;;;;;;;;;;;50.02;11.43;101032.41;5094227;28;20015;-66
2022/09/24 10:16:40;;;;;;;;;;;;;;;50.01;11.27;101042.41;5095726;28;20354;-66
2022/09/24 10:19:22;;;;;;;;;;;;;;;50.02;10.71;101038.19;5095022;28;19936;-66
2022/09/24 10:21:50;;;;;;;;;;;;;;;50.04;11.05;101038.44;5095214;28;20002;-66
2022/09/24 10:24:18;;;;;;;;;;;;;;;50.01;10.56;101037.41;5095307;28;19924;-67
2022/09/24 10:26:46;;;;;;;;;;;;;;;49.94;10.60;101031.41;5095002;28;19924;-67
2022/09/24 10:32:14;;;;;;;;;;;;;;;49.95;11.27;101032.97;5091101;28;20394;-66
2022/09/24 10:34:40;;;;;;;;;;;;;;;50.03;11.28;101031.88;5095091;28;19920;-66
2022/09/24 10:37:17;;;;;;;;;;;;;;;49.95;10.70;101038.75;5094982;28;20267;-66
2022/09/24 10:39:44;;;;;;;;;;;;;;;49.90;10.78;101038.22;5094925;28;19924;-66
2022/09/24 10:42:23;;;;;;;;;;;;;;;49.97;11.03;101036.09;5094685;28;19962;-66
2022/09/24 10:44:49;;;;;;;;;;;;;;;49.92;10.97;101034.81;5094824;28;20026;-66
2022/09/24 10:47:27;;;;;;;;;;;;;;;49.89;10.82;101033.75;5094781;28;20355;-67
2022/09/24 10:49:56;;;;;;;;;;;;;;;49.88;10.94;101034.31;5093432;28;19942;-66
2022/09/24 10:52:35;;;;;;;;;;;;;;;50.03;10.59;101036.88;5094601;28;20010;-67
2022/09/24 10:55:20;;;;;;;;;;;;;;;49.90;10.82;101043.22;5094601;28;19978;-67
2022/09/24 10:57:56;;;;;;;;;;;;;;;49.87;11.22;101044.28;5094675;28;20019;-66
2022/09/24 11:00:26;;;;;;;;;;;;;;;49.80;11.65;101045.66;5094992;28;19927;-66
2022/09/24 11:03:08;;;;;;;;;;;;;;;49.88;11.17;101051.66;5094239;28;19916;-67
2022/09/24 11:05:54;;;;;;;;;;;;;;;49.96;11.23;101049.78;5094460;28;19920;-67
2022/09/24 11:08:20;;;;;;;;;;;;;;;50.12;11.37;101051.81;5094531;28;19920;-67
2022/09/24 11:11:05;;;;;;;;;;;;;;;49.90;11.01;101054.78;5094374;28;20363;-67
2022/09/24 11:13:51;;;;;;;;;;;;;;;49.90;11.60;101057.69;5094299;28;20019;-67
2022/09/24 11:16:24;;;;;;;;;;;;;;;49.81;11.71;101047.22;5094234;28;19924;-67
2022/09/24 11:18:57;;;;;;;;;;;;;;;49.69;11.97;101053.56;5093899;28;19921;-67
2022/09/24 11:21:35;;;;;;;;;;;;;;;49.75;11.76;101051.47;5093934;28;20374;-67
2022/09/24 11:24:19;;;;;;;;;;;;;;;49.85;11.86;101059.28;5093967;28;19920;-67
2022/09/24 11:26:45;;;;;;;;;;;;;;;49.83;12.12;101056.16;5093843;28;20074;-67
2022/09/24 11:29:25;;;;;;;;;;;;;;;49.79;12.23;101061.44;5094206;28;19916;-67
2022/09/24 11:32:06;;;;;;;;;;;;;;;49.62;12.15;101060.69;5093579;28;19924;-67
2022/09/24 11:34:35;;;;;;;;;;;;;;;49.50;11.94;101067.81;5094189;28;19965;-67
2022/09/24 11:37:10;;;;;;;;;;;;;;;49.52;12.20;101065.16;5093890;28;19923;-66
2022/09/24 11:39:37;;;;;;;;;;;;;;;49.35;13.00;101070.19;5093832;28;19943;-66
2022/09/24 11:42:06;;;;;;;;;;;;;;;49.38;12.35;101066.25;5092463;28;19916;-66
2022/09/24 11:44:53;;;;;;;;;;;;;;;49.33;12.52;101069.94;5093604;28;19920;-66
2022/09/24 11:47:29;;;;;;;;;;;;;;;49.39;12.78;101070.75;5093643;28;20038;-66
2022/09/24 11:50:19;;;;;;;;;;;;;;;49.47;13.03;101071.75;5093552;28;19924;-66
2022/09/24 11:53:11;;;;;;;;;;;;;;;49.56;12.92;101065.69;5093570;28;19920;-67
2022/09/24 11:56:03;;;;;;;;;;;;;;;49.34;12.99;101077.28;5077429;28;19977;-67
2022/09/24 11:58:30;;;;;;;;;;;;;;;49.28;13.15;101069.41;5091449;28;19921;-66
2022/09/24 12:01:04;;;;;;;;;;;;;;;49.21;13.41;101077.84;5093426;28;20011;-66
2022/09/24 12:03:39;;;;;;;;;;;;;;;49.16;13.64;101067.06;5093245;28;19920;-67
2022/09/24 12:06:08;;;;;;;;;;;;;;;49.26;13.51;101077.81;5093230;28;19927;-66
2022/09/24 12:08:40;;;;;;;;;;;;;;;49.22;13.59;101071.53;5093274;28;20396;-67
2022/09/24 12:11:14;;;;;;;;;;;;;;;49.16;13.63;101067.84;5093264;28;19959;-67
2022/09/24 12:13:55;;;;;;;;;;;;;;;49.27;13.21;101064.94;5091906;28;20015;-66
2022/09/24 12:16:32;;;;;;;;;;;;;;;49.25;12.80;101075.47;5093201;28;20006;-66
2022/09/24 12:19:01;;;;;;;;;;;;;;;49.27;12.41;101073.59;5093058;28;19920;-66
2022/09/24 12:21:27;;;;;;;;;;;;;;;49.20;12.95;101068.38;5093108;28;19974;-66
2022/09/24 12:23:58;;;;;;;;;;;;;;;49.28;12.57;101072.28;5093050;28;19965;-66
2022/09/24 12:26:26;;;;;;;;;;;;;;;49.42;12.77;101075.44;5092935;28;19920;-67
2022/09/24 12:35:10;;;;;;;;;;;;;;;49.20;12.84;101082.81;5082425;28;20374;-67
2022/09/24 12:37:39;;;;;;;;;;;;;;;49.20;12.27;101085.72;5092958;28;19927;-66
2022/09/24 12:40:11;;;;;;;;;;;;;;;49.37;12.78;101094.34;5092788;28;19916;-66
2022/09/24 12:42:46;;;;;;;;;;;;;;;49.38;12.67;101092.25;5092989;28;20401;-66
2022/09/24 12:45:15;;;;;;;;;;;;;;;49.42;12.67;101095.69;5093081;28;19986;-67
2022/09/24 12:47:49;;;;;;;;;;;;;;;49.24;12.75;101102.75;5092983;28;19923;-66
2022/09/24 12:50:20;;;;;;;;;;;;;;;49.16;12.95;101110.38;5092796;28;19927;-66
2022/09/24 12:52:47;;;;;;;;;;;;;;;49.17;12.96;101109.84;5093321;28;20381;-66
2022/09/24 12:55:33;;;;;;;;;;;;;;;49.08;12.49;101104.34;5093586;28;20355;-67
2022/09/24 12:58:04;;;;;;;;;;;;;;;48.98;13.13;101111.69;5096980;28;19966;-66
2022/09/24 13:00:31;;;;;;;;;;;;;;;49.12;12.62;101109.84;5096718;28;19927;-67
2022/09/24 13:02:57;;;;;;;;;;;;;;;48.98;12.08;101115.38;5096788;28;19916;-67
2022/09/24 13:05:26;;;;;;;;;;;;;;;49.08;12.24;101110.13;5096821;28;20374;-66
2022/09/24 13:07:55;;;;;;;;;;;;;;;49.17;12.28;101109.06;5096627;28;19915;-66
2022/09/24 13:10:26;;;;;;;;;;;;;;;49.20;12.16;101108.00;5096696;28;19960;-66